createdAt,value
2022-11-17T00:02:22.002Z,100632.78
2022-11-17T00:04:49.013Z,100627.03
2022-11-17T00:07:18.705Z,100622.91
2022-11-17T00:09:45.382Z,100623.75
2022-11-17T00:12:33.059Z,100617.75
2022-11-17T00:14:59.956Z,100609.03
2022-11-17T00:17:26.437Z,100611.00
2022-11-17T00:20:11.535Z,100609.53
2022-11-17T00:22:38.033Z,100611.13
2022-11-17T00:25:04.783Z,100606.91
2022-11-17T00:27:31.261Z,100610.22
2022-11-17T00:29:57.770Z,100614.66
2022-11-17T00:32:42.871Z,100609.97
2022-11-17T00:35:09.416Z,100608.13
2022-11-17T00:38:01.376Z,100612.06
2022-11-17T00:40:27.933Z,100616.19
2022-11-17T00:42:54.472Z,100610.97
2022-11-17T00:45:20.975Z,100616.53
2022-11-17T00:47:47.892Z,100615.88
2022-11-17T00:50:15.819Z,100615.69
2022-11-17T00:52:42.464Z,100615.69
2022-11-17T00:55:09.271Z,100624.19
2022-11-17T00:57:35.783Z,100606.19
2022-11-17T01:00:02.407Z,100620.72
2022-11-17T01:02:28.956Z,100622.81
2022-11-17T01:05:05.007Z,100619.56
2022-11-17T01:07:33.044Z,100615.31
2022-11-17T01:09:59.616Z,100619.19
2022-11-17T01:12:26.245Z,100612.66
2022-11-17T01:14:52.791Z,100619.66
2022-11-17T01:17:19.260Z,100610.53
2022-11-17T01:19:46.755Z,100612.66
2022-11-17T01:22:13.304Z,100614.75
2022-11-17T01:24:39.863Z,100605.41
2022-11-17T01:27:06.351Z,100602.28
2022-11-17T01:29:36.326Z,100602.78
2022-11-17T01:32:02.807Z,100596.56
2022-11-17T01:34:29.525Z,100596.06
2022-11-17T01:37:14.507Z,100597.84
2022-11-17T01:39:43.023Z,100586.22
2022-11-17T01:42:23.694Z,100582.53
2022-11-17T01:44:58.382Z,100582.91
2022-11-17T01:47:37.200Z,100581.25
2022-11-17T01:50:08.877Z,100582.06
2022-11-17T01:52:41.339Z,100591.16
2022-11-17T01:55:13.555Z,100594.50
2022-11-17T01:57:53.370Z,100592.22
2022-11-17T02:00:26.955Z,100594.50
2022-11-17T02:02:54.165Z,100594.38
2022-11-17T02:05:33.028Z,100589.34
2022-11-17T02:08:01.255Z,100588.78
2022-11-17T02:10:30.481Z,100578.22
2022-11-17T02:13:00.869Z,100577.97
2022-11-17T02:15:29.364Z,100567.84
2022-11-17T02:17:56.881Z,100566.72
2022-11-17T02:20:48.187Z,100568.50
2022-11-17T02:23:43.601Z,100566.69
2022-11-17T02:26:37.445Z,100565.22
2022-11-17T02:29:18.815Z,100556.97
2022-11-17T02:32:13.441Z,100561.31
2022-11-17T02:35:26.016Z,100561.94
2022-11-17T02:38:05.657Z,100560.28
2022-11-17T02:40:35.424Z,100564.63
2022-11-17T02:43:27.564Z,100565.59
2022-11-17T02:46:08.543Z,100555.00
2022-11-17T02:48:45.927Z,100553.41
2022-11-17T02:51:16.606Z,100557.63
2022-11-17T02:53:43.407Z,100554.31
2022-11-17T02:56:09.951Z,100558.19
2022-11-17T02:58:36.510Z,100552.66
2022-11-17T03:01:09.060Z,100553.34
2022-11-17T03:03:54.344Z,100546.88
2022-11-17T03:06:35.927Z,100552.34
2022-11-17T03:09:41.594Z,100554.38
2022-11-17T03:12:21.958Z,100549.28
2022-11-17T03:15:21.384Z,100550.88
2022-11-17T03:17:58.205Z,100546.44
2022-11-17T03:23:46.134Z,100552.50
2022-11-17T03:26:17.434Z,100551.63
2022-11-17T03:28:45.501Z,100543.16
2022-11-17T03:31:14.511Z,100550.75
2022-11-17T03:33:41.815Z,100542.47
2022-11-17T03:36:13.184Z,100536.00
2022-11-17T03:38:54.372Z,100542.09
2022-11-17T03:41:22.262Z,100538.00
2022-11-17T03:43:51.804Z,100537.91
2022-11-17T03:46:19.776Z,100536.31
2022-11-17T03:48:54.078Z,100526.69
2022-11-17T03:51:25.614Z,100536.66
2022-11-17T03:53:53.182Z,100534.31
2022-11-17T03:56:35.264Z,100529.34
2022-11-17T03:59:09.432Z,100529.38
2022-11-17T04:01:36.855Z,100524.72
2022-11-17T04:04:03.535Z,100522.78
2022-11-17T04:06:30.030Z,100525.81
2022-11-17T04:08:57.006Z,100522.72
2022-11-17T04:11:41.896Z,100519.00
2022-11-17T04:14:27.449Z,100523.41
2022-11-17T04:16:53.931Z,100514.28
2022-11-17T04:19:20.711Z,100520.03
2022-11-17T04:21:47.296Z,100514.00
2022-11-17T04:24:13.764Z,100518.75
2022-11-17T04:26:59.198Z,100513.97
2022-11-17T04:29:26.006Z,100523.50
2022-11-17T04:31:54.827Z,100509.16
2022-11-17T04:34:21.464Z,100515.72
2022-11-17T04:36:51.329Z,100513.41
2022-11-17T04:39:18.325Z,100510.81
2022-11-17T04:41:54.311Z,100517.94
2022-11-17T04:44:23.534Z,100512.53
2022-11-17T04:46:50.301Z,100517.69
2022-11-17T04:49:19.055Z,100515.09
2022-11-17T04:51:47.129Z,100513.72
2022-11-17T04:54:16.369Z,100512.97
2022-11-17T04:56:44.884Z,100518.38
2022-11-17T04:59:15.717Z,100518.69
2022-11-17T05:01:42.564Z,100512.72
2022-11-17T05:04:32.961Z,100507.31
2022-11-17T05:06:59.567Z,100510.13
2022-11-17T05:09:26.058Z,100509.94
2022-11-17T05:12:11.240Z,100505.97
2022-11-17T05:14:37.763Z,100493.50
2022-11-17T05:17:10.954Z,100499.75
2022-11-17T05:19:47.986Z,100498.41
2022-11-17T05:22:35.547Z,100490.13
2022-11-17T05:25:02.255Z,100498.97
2022-11-17T05:27:31.021Z,100495.41
2022-11-17T05:29:57.550Z,100497.72
2022-11-17T05:32:26.456Z,100500.81
2022-11-17T05:34:55.319Z,100487.94
2022-11-17T05:37:22.026Z,100499.91
2022-11-17T05:39:48.693Z,100504.78
2022-11-17T05:42:15.252Z,100505.06
2022-11-17T05:44:41.743Z,100509.44
2022-11-17T05:47:08.285Z,100515.16
2022-11-17T05:49:34.773Z,100514.66
2022-11-17T05:52:01.735Z,100517.22
2022-11-17T05:54:28.279Z,100510.19
2022-11-17T05:57:07.335Z,100519.88
2022-11-17T05:59:46.140Z,100523.75
2022-11-17T06:02:17.479Z,100520.38
2022-11-17T06:04:44.303Z,100515.94
2022-11-17T06:07:11.031Z,100514.38
2022-11-17T06:09:41.429Z,100522.47
2022-11-17T06:12:08.603Z,100522.97
2022-11-17T06:14:35.589Z,100521.50
2022-11-17T06:17:04.319Z,100518.81
2022-11-17T06:19:51.715Z,100525.88
2022-11-17T06:22:19.640Z,100518.91
2022-11-17T06:24:46.389Z,100525.00
2022-11-17T06:27:14.645Z,100524.84
2022-11-17T06:29:44.718Z,100525.03
2022-11-17T06:32:13.886Z,100521.66
2022-11-17T06:34:41.233Z,100527.78
2022-11-17T06:37:07.992Z,100531.44
2022-11-17T06:39:34.516Z,100528.59
2022-11-17T06:42:01.250Z,100529.38
2022-11-17T06:44:27.771Z,100530.19
2022-11-17T06:46:54.263Z,100527.59
2022-11-17T06:49:20.763Z,100528.16
2022-11-17T06:51:47.382Z,100527.84
2022-11-17T06:54:14.858Z,100518.56
2022-11-17T06:56:41.840Z,100521.06
2022-11-17T06:59:08.555Z,100524.84
2022-11-17T07:01:35.501Z,100523.09
2022-11-17T07:04:02.270Z,100526.16
2022-11-17T07:06:28.896Z,100514.72
2022-11-17T07:08:55.785Z,100520.63
2022-11-17T07:11:22.362Z,100522.06
2022-11-17T07:13:48.822Z,100523.44
2022-11-17T07:16:22.949Z,100525.69
2022-11-17T07:18:50.643Z,100517.66
2022-11-17T07:21:17.955Z,100521.34
2022-11-17T07:23:47.397Z,100516.16
2022-11-17T07:26:14.354Z,100525.91
2022-11-17T07:28:40.919Z,100521.47
2022-11-17T07:31:09.058Z,100523.06
2022-11-17T07:33:36.289Z,100525.97
2022-11-17T07:36:09.689Z,100523.94
2022-11-17T07:38:39.172Z,100528.03
2022-11-17T07:41:07.032Z,100518.91
2022-11-17T07:43:34.711Z,100518.69
2022-11-17T07:46:08.287Z,100526.28
2022-11-17T07:48:35.285Z,100519.66
2022-11-17T07:51:04.328Z,100527.38
2022-11-17T07:53:32.402Z,100526.56
2022-11-17T07:56:05.012Z,100513.38
2022-11-17T07:58:31.690Z,100514.47
2022-11-17T08:00:58.378Z,100517.63
2022-11-17T08:03:24.944Z,100515.56
2022-11-17T08:05:51.794Z,100510.13
2022-11-17T08:08:18.539Z,100508.97
2022-11-17T08:10:46.376Z,100514.00
2022-11-17T08:13:14.116Z,100513.44
2022-11-17T08:15:44.644Z,100507.47
2022-11-17T08:18:11.452Z,100495.22
2022-11-17T08:20:38.216Z,100504.06
2022-11-17T08:23:04.780Z,100504.09
2022-11-17T08:25:31.349Z,100514.47
2022-11-17T08:28:00.967Z,100510.63
2022-11-17T08:30:28.591Z,100508.88
2022-11-17T08:32:55.173Z,100512.22
2022-11-17T08:35:24.294Z,100515.59
2022-11-17T08:37:52.742Z,100522.16
2022-11-17T08:40:19.763Z,100522.63
2022-11-17T08:42:48.977Z,100521.78
2022-11-17T08:45:15.556Z,100526.50
2022-11-17T08:47:42.349Z,100528.28
2022-11-17T08:50:09.356Z,100525.16
2022-11-17T08:52:35.887Z,100526.94
2022-11-17T08:55:02.938Z,100518.38
2022-11-17T08:57:31.401Z,100522.28
2022-11-17T08:59:58.333Z,100522.78
2022-11-17T09:02:51.923Z,100520.03
2022-11-17T09:05:18.459Z,100522.13
2022-11-17T09:07:45.437Z,100518.06
2022-11-17T09:10:12.345Z,100522.56
2022-11-17T09:12:38.868Z,100522.50
2022-11-17T09:15:05.964Z,100515.25
2022-11-17T09:17:32.814Z,100521.38
2022-11-17T09:19:59.441Z,100510.91
2022-11-17T09:22:25.932Z,100506.84
2022-11-17T09:24:52.397Z,100507.53
2022-11-17T09:27:19.798Z,100507.25
2022-11-17T09:29:46.323Z,100506.94
2022-11-17T09:32:16.625Z,100518.03
2022-11-17T09:34:43.274Z,100508.66
2022-11-17T09:37:09.863Z,100499.28
2022-11-17T09:39:36.329Z,100502.78
2022-11-17T09:42:03.087Z,100502.97
2022-11-17T09:44:32.219Z,100504.41
2022-11-17T09:47:03.012Z,100499.97
2022-11-17T09:49:58.095Z,100498.63
2022-11-17T09:52:52.889Z,100499.16
2022-11-17T09:55:37.782Z,100495.88
2022-11-17T09:58:31.574Z,100487.47
2022-11-17T10:00:58.620Z,100487.06
2022-11-17T10:03:40.052Z,100477.91
2022-11-17T10:06:22.942Z,100478.31
2022-11-17T10:09:01.494Z,100475.69
2022-11-17T10:11:33.309Z,100469.41
2022-11-17T10:14:03.384Z,100467.31
2022-11-17T10:16:31.385Z,100468.47
2022-11-17T10:18:58.335Z,100473.00
2022-11-17T10:21:30.601Z,100465.63
2022-11-17T10:23:58.596Z,100464.78
2022-11-17T10:26:25.824Z,100462.28
2022-11-17T10:29:08.822Z,100461.28
2022-11-17T10:31:46.202Z,100458.56
2022-11-17T10:34:37.058Z,100463.34
2022-11-17T10:37:19.383Z,100461.06
2022-11-17T10:39:45.907Z,100448.59
2022-11-17T10:42:32.677Z,100457.88
2022-11-17T10:45:00.678Z,100448.03
2022-11-17T10:47:33.626Z,100442.78
2022-11-17T10:50:21.538Z,100450.25
2022-11-17T10:52:48.909Z,100445.03
2022-11-17T10:55:24.225Z,100446.50
2022-11-17T10:57:54.718Z,100439.56
2022-11-17T11:00:33.518Z,100428.75
2022-11-17T11:03:19.268Z,100445.91
2022-11-17T11:06:01.964Z,100445.31
2022-11-17T11:08:36.382Z,100442.56
2022-11-17T11:11:08.987Z,100431.97
2022-11-17T11:13:55.968Z,100439.53
2022-11-17T11:16:24.502Z,100433.16
2022-11-17T11:18:52.336Z,100439.06
2022-11-17T11:21:44.684Z,100434.53
2022-11-17T11:24:23.400Z,100423.34
2022-11-17T11:27:22.376Z,100421.31
2022-11-17T11:29:55.176Z,100420.91
2022-11-17T11:32:57.480Z,100421.28
2022-11-17T11:36:01.443Z,100415.63
2022-11-17T11:38:42.143Z,100403.28
2022-11-17T11:41:36.529Z,100403.72
2022-11-17T11:44:03.868Z,100407.91
2022-11-17T11:46:58.002Z,100398.19
2022-11-17T11:49:42.557Z,100401.06
2022-11-17T11:52:17.645Z,100386.06
2022-11-17T11:55:03.215Z,100394.50
2022-11-17T11:57:38.370Z,100386.97
2022-11-17T12:00:09.049Z,100390.56
2022-11-17T12:03:04.423Z,100385.09
2022-11-17T12:05:39.976Z,100389.44
2022-11-17T12:08:12.431Z,100377.94
2022-11-17T12:11:27.149Z,100383.59
2022-11-17T12:13:58.095Z,100383.16
2022-11-17T12:16:49.085Z,100381.28
2022-11-17T12:20:19.610Z,100373.88
2022-11-17T12:22:59.220Z,100372.75
2022-11-17T12:25:30.568Z,100371.41
2022-11-17T12:27:57.288Z,100370.66
2022-11-17T12:30:47.881Z,100374.38
2022-11-17T12:33:21.775Z,100373.69
2022-11-17T12:36:30.551Z,100361.59
2022-11-17T12:39:01.586Z,100363.16
2022-11-17T12:41:54.557Z,100368.69
2022-11-17T12:44:44.172Z,100375.84
2022-11-17T12:47:14.103Z,100372.97
2022-11-17T12:50:08.807Z,100368.69
2022-11-17T12:52:51.984Z,100368.84
2022-11-17T12:55:46.438Z,100369.91
2022-11-17T12:58:25.339Z,100361.03
2022-11-17T13:00:57.276Z,100364.19
2022-11-17T13:03:33.931Z,100356.56
2022-11-17T13:06:41.585Z,100367.50
2022-11-17T13:09:07.077Z,100358.47
2022-11-17T13:11:33.993Z,100360.41
2022-11-17T13:14:12.840Z,100355.44
2022-11-17T13:16:51.535Z,100348.25
2022-11-17T13:19:37.531Z,100347.56
2022-11-17T13:22:14.415Z,100340.69
2022-11-17T13:24:45.883Z,100343.06
2022-11-17T13:27:22.125Z,100348.81
2022-11-17T13:29:51.113Z,100349.00
2022-11-17T13:32:17.604Z,100353.34
2022-11-17T13:35:00.117Z,100341.56
2022-11-17T13:37:28.977Z,100344.72
2022-11-17T13:39:57.223Z,100338.47
2022-11-17T13:42:25.800Z,100341.09
2022-11-17T13:44:54.970Z,100337.41
2022-11-17T13:47:36.647Z,100338.38
2022-11-17T13:50:22.696Z,100336.91
2022-11-17T13:53:00.086Z,100330.44
2022-11-17T13:55:27.689Z,100328.19
2022-11-17T13:58:02.921Z,100322.25
2022-11-17T14:00:31.168Z,100319.66
2022-11-17T14:03:11.795Z,100323.13
2022-11-17T14:05:40.588Z,100316.81
2022-11-17T14:08:23.290Z,100315.63
2022-11-17T14:10:49.829Z,100327.34
2022-11-17T14:13:22.066Z,100328.31
2022-11-17T14:15:57.868Z,100321.19
2022-11-17T14:18:37.289Z,100327.84
2022-11-17T14:21:11.716Z,100327.06
2022-11-17T14:23:38.934Z,100321.31
2022-11-17T14:26:06.322Z,100324.97
2022-11-17T14:28:35.752Z,100322.84
2022-11-17T14:31:03.447Z,100316.63
2022-11-17T14:33:29.917Z,100316.47
2022-11-17T14:35:58.721Z,100311.66
2022-11-17T14:38:25.685Z,100311.56
2022-11-17T14:40:53.153Z,100313.13
2022-11-17T14:43:21.708Z,100317.88
2022-11-17T14:45:49.393Z,100319.84
2022-11-17T14:48:19.412Z,100332.22
2022-11-17T14:50:48.342Z,100324.56
2022-11-17T14:53:15.047Z,100318.34
2022-11-17T14:55:41.622Z,100326.41
2022-11-17T14:58:09.798Z,100311.09
2022-11-17T15:00:36.383Z,100320.34
2022-11-17T15:03:02.987Z,100321.38
2022-11-17T15:05:29.544Z,100315.16
2022-11-17T15:07:56.628Z,100321.38
2022-11-17T15:10:23.221Z,100317.25
2022-11-17T15:12:49.923Z,100317.59
2022-11-17T15:15:17.720Z,100335.50
2022-11-17T15:17:44.249Z,100329.97
2022-11-17T15:20:11.491Z,100326.34
2022-11-17T15:22:37.959Z,100319.50
2022-11-17T15:25:04.804Z,100320.41
2022-11-17T15:27:31.430Z,100312.94
2022-11-17T15:29:57.938Z,100321.88
2022-11-17T15:32:24.435Z,100317.09
2022-11-17T15:34:50.970Z,100316.91
2022-11-17T15:37:17.760Z,100313.03
2022-11-17T15:39:44.346Z,100315.75
2022-11-17T15:42:11.061Z,100311.34
2022-11-17T15:47:18.146Z,100305.31
2022-11-17T15:49:46.888Z,100308.00
2022-11-17T15:52:13.443Z,100307.09
2022-11-17T15:54:43.071Z,100317.16
2022-11-17T15:57:11.225Z,100318.66
2022-11-17T15:59:37.757Z,100318.56
2022-11-17T16:02:10.463Z,100319.50
2022-11-17T16:04:39.957Z,100312.44
2022-11-17T16:07:06.600Z,100323.56
2022-11-17T16:09:35.130Z,100324.28
2022-11-17T16:14:49.898Z,100324.63
2022-11-17T16:17:16.361Z,100320.56
2022-11-17T16:19:42.998Z,100321.16
2022-11-17T16:22:12.478Z,100318.78
2022-11-17T16:24:39.496Z,100320.06
2022-11-17T16:27:08.641Z,100318.31
2022-11-17T16:29:38.270Z,100327.13
2022-11-17T16:32:08.420Z,100334.06
2022-11-17T16:34:36.280Z,100318.75
2022-11-17T16:37:02.786Z,100320.38
2022-11-17T16:39:29.263Z,100309.34
2022-11-17T16:41:57.971Z,100305.28
2022-11-17T16:44:26.892Z,100311.50
2022-11-17T16:46:55.736Z,100308.59
2022-11-17T16:49:22.776Z,100303.41
2022-11-17T16:51:52.738Z,100298.56
2022-11-17T16:54:19.847Z,100304.13
2022-11-17T16:57:01.605Z,100299.66
2022-11-17T16:59:31.013Z,100301.69
2022-11-17T17:02:01.316Z,100304.91
2022-11-17T17:04:36.164Z,100296.50
2022-11-17T17:07:07.020Z,100295.47
2022-11-17T17:09:34.210Z,100298.44
2022-11-17T17:12:27.881Z,100297.72
2022-11-17T17:14:55.909Z,100301.63
2022-11-17T17:17:23.712Z,100302.91
2022-11-17T17:19:50.415Z,100306.31
2022-11-17T17:22:19.364Z,100287.91
2022-11-17T17:24:51.174Z,100295.22
2022-11-17T17:27:17.746Z,100293.97
2022-11-17T17:32:47.993Z,100310.38
2022-11-17T17:35:15.939Z,100301.84
2022-11-17T17:37:42.475Z,100305.66
2022-11-17T17:40:09.554Z,100295.69
2022-11-17T17:42:37.457Z,100304.53
2022-11-17T17:45:05.646Z,100299.06
2022-11-17T17:47:33.809Z,100303.50
2022-11-17T17:52:40.674Z,100289.84
2022-11-17T17:55:07.519Z,100285.44
2022-11-17T17:57:34.402Z,100296.06
2022-11-17T18:00:02.039Z,100297.34
2022-11-17T18:02:51.590Z,100293.91
2022-11-17T18:05:24.135Z,100299.41
2022-11-17T18:07:50.699Z,100303.22
2022-11-17T18:10:17.287Z,100304.94
2022-11-17T18:12:43.778Z,100303.38
2022-11-17T18:15:10.974Z,100302.13
2022-11-17T18:17:37.484Z,100299.59
2022-11-17T18:20:04.585Z,100291.75
2022-11-17T18:22:31.108Z,100300.53
2022-11-17T18:24:59.726Z,100294.25
2022-11-17T18:27:27.528Z,100295.81
2022-11-17T18:29:54.033Z,100286.84
2022-11-17T18:32:20.793Z,100293.00
2022-11-17T18:34:47.680Z,100288.56
2022-11-17T18:37:14.259Z,100284.69
2022-11-17T18:39:40.834Z,100297.38
2022-11-17T18:42:07.285Z,100297.44
2022-11-17T18:44:33.810Z,100288.28
2022-11-17T18:47:03.096Z,100298.72
2022-11-17T18:49:30.708Z,100296.25
2022-11-17T18:51:57.281Z,100300.34
2022-11-17T18:54:23.878Z,100305.53
2022-11-17T18:56:50.562Z,100296.63
2022-11-17T18:59:20.786Z,100288.97
2022-11-17T19:01:47.458Z,100294.78
2022-11-17T19:04:36.101Z,100290.38
2022-11-17T19:07:27.249Z,100289.34
2022-11-17T19:10:14.468Z,100288.22
2022-11-17T19:12:41.317Z,100287.47
2022-11-17T19:15:07.918Z,100292.38
2022-11-17T19:17:34.430Z,100280.19
2022-11-17T19:20:01.043Z,100281.97
2022-11-17T19:22:35.674Z,100286.19
2022-11-17T19:25:02.610Z,100280.13
2022-11-17T19:27:30.737Z,100283.56
2022-11-17T19:29:57.429Z,100273.31
2022-11-17T19:32:25.503Z,100279.59
2022-11-17T19:34:54.135Z,100281.78
2022-11-17T19:37:25.113Z,100278.53
2022-11-17T19:39:53.120Z,100276.00
2022-11-17T19:42:19.810Z,100269.09
2022-11-17T19:45:28.801Z,100267.22
2022-11-17T19:47:55.319Z,100265.72
2022-11-17T19:50:21.834Z,100255.28
2022-11-17T19:52:48.334Z,100263.38
2022-11-17T19:55:15.247Z,100258.47
2022-11-17T19:57:42.272Z,100252.47
2022-11-17T20:00:09.898Z,100264.91
2022-11-17T20:02:36.588Z,100254.59
2022-11-17T20:05:08.095Z,100248.75
2022-11-17T20:08:01.329Z,100253.25
2022-11-17T20:10:27.831Z,100248.59
2022-11-17T20:12:54.420Z,100257.03
2022-11-17T20:15:33.852Z,100252.06
2022-11-17T20:18:01.220Z,100245.75
2022-11-17T20:20:27.726Z,100245.34
2022-11-17T20:22:54.245Z,100246.88
2022-11-17T20:25:20.744Z,100236.88
2022-11-17T20:27:49.966Z,100233.63
2022-11-17T20:30:16.627Z,100231.34
2022-11-17T20:32:45.164Z,100240.09
2022-11-17T20:35:11.667Z,100235.78
2022-11-17T20:37:38.200Z,100234.81
2022-11-17T20:40:05.228Z,100235.19
2022-11-17T20:42:31.689Z,100238.31
2022-11-17T20:44:58.167Z,100245.03
2022-11-17T20:47:27.619Z,100233.41
2022-11-17T20:49:55.286Z,100231.41
2022-11-17T20:52:21.838Z,100231.09
2022-11-17T20:54:48.541Z,100229.06
2022-11-17T20:57:15.054Z,100233.16
2022-11-17T20:59:41.779Z,100229.28
2022-11-17T21:02:10.781Z,100225.56
2022-11-17T21:04:37.301Z,100227.09
2022-11-17T21:07:03.869Z,100218.84
2022-11-17T21:09:30.378Z,100219.41
2022-11-17T21:11:56.983Z,100211.38
2022-11-17T21:14:27.184Z,100208.31
2022-11-17T21:16:55.447Z,100203.97
2022-11-17T21:19:22.340Z,100209.91
2022-11-17T21:21:53.390Z,100205.94
2022-11-17T21:24:21.973Z,100206.19
2022-11-17T21:26:53.360Z,100208.78
2022-11-17T21:29:20.064Z,100215.81
2022-11-17T21:31:46.777Z,100208.13
2022-11-17T21:34:17.232Z,100206.03
2022-11-17T21:36:43.765Z,100209.38
2022-11-17T21:39:16.461Z,100214.53
2022-11-17T21:41:44.074Z,100205.09
2022-11-17T21:44:11.760Z,100213.25
2022-11-17T21:46:40.565Z,100205.38
2022-11-17T21:49:09.190Z,100204.09
2022-11-17T21:51:38.346Z,100195.16
2022-11-17T21:54:09.622Z,100200.09
2022-11-17T21:56:36.558Z,100198.84
2022-11-17T21:59:07.126Z,100196.00
2022-11-17T22:01:33.945Z,100193.31
2022-11-17T22:04:08.107Z,100195.88
2022-11-17T22:06:34.674Z,100215.94
2022-11-17T22:09:01.303Z,100204.28
2022-11-17T22:11:36.187Z,100198.94
2022-11-17T22:14:18.050Z,100203.66
2022-11-17T22:16:52.186Z,100211.13
2022-11-17T22:19:20.295Z,100217.66
2022-11-17T22:21:51.944Z,100237.03
2022-11-17T22:24:19.279Z,100233.84
2022-11-17T22:26:48.290Z,100226.72
2022-11-17T22:29:21.046Z,100223.66
2022-11-17T22:31:48.838Z,100224.44
2022-11-17T22:34:16.179Z,100227.44
2022-11-17T22:36:42.895Z,100214.97
2022-11-17T22:39:09.476Z,100215.59
2022-11-17T22:41:36.167Z,100212.81
2022-11-17T22:44:02.801Z,100207.34
2022-11-17T22:46:29.652Z,100207.47
2022-11-17T22:48:57.790Z,100212.84
2022-11-17T22:51:43.785Z,100209.00
2022-11-17T22:54:10.419Z,100211.63
2022-11-17T22:56:39.252Z,100219.09
2022-11-17T22:59:07.858Z,100213.13
2022-11-17T23:01:34.749Z,100223.41
2022-11-17T23:04:01.307Z,100224.59
2022-11-17T23:06:27.868Z,100225.97
2022-11-17T23:08:59.052Z,100230.19
2022-11-17T23:11:37.160Z,100231.03
2022-11-17T23:14:10.735Z,100232.19
2022-11-17T23:16:37.959Z,100239.56
2022-11-17T23:19:05.129Z,100238.25
2022-11-17T23:21:32.046Z,100235.13
2022-11-17T23:23:58.942Z,100246.44
2022-11-17T23:26:25.755Z,100241.53
2022-11-17T23:28:55.002Z,100248.13
2022-11-17T23:31:21.691Z,100246.06
2022-11-17T23:33:48.956Z,100246.97
2022-11-17T23:36:20.082Z,100242.75
2022-11-17T23:38:48.324Z,100236.94
2022-11-17T23:41:16.982Z,100245.88
2022-11-17T23:43:43.827Z,100240.50
2022-11-17T23:46:13.236Z,100235.19
2022-11-17T23:48:40.339Z,100229.41
2022-11-17T23:51:18.383Z,100222.22
2022-11-17T23:53:46.368Z,100221.47
2022-11-17T23:56:13.854Z,100210.31
2022-11-17T23:58:40.619Z,100206.78
